Terminal Aerodrome Forecast
Issued by NWS

Home | Current Version | Previous Version | Text Only | Print | Product List | Glossary On
Versions: 1 2 3 4 5 6 7 8 9 10 11 12 13 14 15 16 17 18 19 20 21 22 23 24 25 26 27
520
FTUS41 KBUF 290936 AAB
TAFJHW
TAF AMD
KJHW 290936Z 2910/3006 00000KT 5SM BR VCSH BKN050
     FM291100 VRB03KT P6SM SCT050 BKN250
     FM291500 02004KT P6SM BKN250
     FM291700 02008KT P6SM BKN050
     FM300000 07006KT P6SM BKN100 BKN250
      AMD LTD TO CLD VIS AND WIND=

USA.gov is the U.S. government's official web portal to all federal, state and local government web resources and services.